Terminal Aerodrome Forecast
Issued by NWS Cleveland, OH

Home | Current Version | Previous Version | Graphics & Text | Print | Product List | Glossary On
Versions: 1 2 3 4 5 6 7 8 9 10 11 12 13 14 15 16 17 18 19 20 21 22 23 24 25 26 27 28
000
FTUS41 KCLE 280800 AAA
TAFCLE
TAF AMD
KCLE 280852Z 2809/2912 VRB03KT P6SM SKC
     FM290000 17005KT P6SM OVC250
     FM290600 17010G18KT P6SM OVC070=

USA.gov is the U.S. government's official web portal to all federal, state and local government web resources and services.